Time;durP1;ratioP1;P1;durP2;ratioP2;P2;SDS_P1;SDS_P2;PMS_P1;PMS_P2;Temp;Humidity;BMP_temperature;BMP_pressure;BME280_temperature;BME280_humidity;BME280_pressure;Samples;Min_cycle;Max_cycle;Signal;HPM_P1;HPM_P2
2024/02/07 00:00:21;;;;;;;6.90;3.10;;;11.60;99.90;;;;;;5070414;28;20280;-72
2024/02/07 00:02:47;;;;;;;3.87;3.00;;;11.60;99.90;;;;;;5071667;28;20173;-72
2024/02/07 00:05:12;;;;;;;9.10;3.13;;;11.50;99.90;;;;;;5071605;28;20194;-72
2024/02/07 00:07:38;;;;;;;3.67;2.77;;;11.50;99.90;;;;;;5071775;28;20245;-72
2024/02/07 00:10:04;;;;;;;9.60;3.53;;;11.60;99.90;;;;;;5071614;28;20677;-71
2024/02/07 00:12:30;;;;;;;5.70;3.20;;;11.60;99.90;;;;;;5071798;28;20216;-72
2024/02/07 00:14:55;;;;;;;10.07;3.83;;;11.60;99.90;;;;;;5071797;28;20405;-72
2024/02/07 00:17:21;;;;;;;6.00;3.60;;;11.50;99.90;;;;;;5071730;28;20416;-71
2024/02/07 00:19:47;;;;;;;7.20;4.47;;;11.50;99.90;;;;;;5067173;28;20174;-71
2024/02/07 00:22:13;;;;;;;3.20;2.90;;;11.50;99.90;;;;;;5069025;28;20189;-71
2024/02/07 00:24:39;;;;;;;5.57;3.63;;;11.50;99.90;;;;;;5071153;28;20815;-72
2024/02/07 00:27:05;;;;;;;6.20;2.80;;;11.50;99.90;;;;;;5075254;28;20197;-72
2024/02/07 00:29:31;;;;;;;5.07;3.23;;;11.50;99.90;;;;;;5073369;28;20507;-72
2024/02/07 00:31:56;;;;;;;9.83;3.53;;;11.50;99.90;;;;;;5071087;28;20469;-72
2024/02/07 00:34:22;;;;;;;7.80;3.40;;;11.40;99.90;;;;;;5075684;28;20161;-72
2024/02/07 00:36:48;;;;;;;11.50;4.10;;;11.30;99.90;;;;;;5067053;28;20744;-71
2024/02/07 00:39:13;;;;;;;4.70;3.10;;;11.20;99.90;;;;;;5075109;28;20166;-71
2024/02/07 00:41:39;;;;;;;5.50;3.87;;;11.20;99.90;;;;;;5075429;28;20511;-72
2024/02/07 00:44:04;;;;;;;8.07;4.40;;;11.20;99.90;;;;;;5074490;28;20174;-72
2024/02/07 00:46:30;;;;;;;8.83;3.70;;;11.10;99.90;;;;;;5075337;28;20208;-72
2024/02/07 00:48:56;;;;;;;7.60;3.60;;;11.10;99.90;;;;;;5075221;28;20162;-72
2024/02/07 00:51:22;;;;;;;6.53;5.10;;;11.10;99.90;;;;;;5075128;28;20188;-71
2024/02/07 00:53:47;;;;;;;6.47;3.37;;;11.10;99.90;;;;;;5075085;28;20499;-72
2024/02/07 00:56:13;;;;;;;6.10;4.40;;;11.10;99.90;;;;;;5075277;28;20194;-72
2024/02/07 00:58:39;;;;;;;11.73;3.80;;;11.10;99.90;;;;;;5075023;28;20174;-71
2024/02/07 01:01:05;;;;;;;11.20;3.60;;;11.10;99.90;;;;;;5075197;28;20646;-72
2024/02/07 01:03:31;;;;;;;6.63;3.40;;;11.10;99.90;;;;;;5075166;28;20403;-72
2024/02/07 01:05:57;;;;;;;5.10;2.83;;;11.20;99.90;;;;;;5074868;28;20280;-72
2024/02/07 01:08:22;;;;;;;6.43;3.27;;;11.20;99.90;;;;;;5074777;28;20826;-72
2024/02/07 01:10:48;;;;;;;3.13;2.83;;;11.20;99.90;;;;;;5074865;28;20214;-72
2024/02/07 01:13:14;;;;;;;3.97;3.10;;;11.20;99.90;;;;;;5067410;28;20186;-72
2024/02/07 01:15:39;;;;;;;3.90;3.20;;;11.20;99.90;;;;;;5073986;28;20201;-72
2024/02/07 01:18:05;;;;;;;6.47;3.70;;;11.30;99.90;;;;;;5074491;28;20679;-72
2024/02/07 01:20:30;;;;;;;2.60;2.40;;;11.20;99.90;;;;;;5074716;28;20182;-72
2024/02/07 01:22:56;;;;;;;2.87;2.53;;;11.20;99.90;;;;;;5074630;28;20178;-72
2024/02/07 01:25:22;;;;;;;8.23;3.17;;;11.20;99.90;;;;;;5074437;28;20255;-72
2024/02/07 01:27:48;;;;;;;4.10;2.90;;;11.20;99.90;;;;;;5073193;28;20181;-71
2024/02/07 01:30:13;;;;;;;5.60;2.87;;;11.10;99.90;;;;;;5074746;28;20413;-72
2024/02/07 01:32:42;;;;;;;4.33;2.93;;;11.10;99.90;;;;;;5074701;28;20166;-72
2024/02/07 01:35:12;;;;;;;2.83;2.63;;;11.10;99.90;;;;;;5072516;28;20197;-72
2024/02/07 01:37:40;;;;;;;7.70;3.77;;;11.10;99.90;;;;;;5066812;28;20448;-72
2024/02/07 01:40:09;;;;;;;7.60;4.27;;;11.10;99.90;;;;;;5073876;28;20408;-71
2024/02/07 01:42:35;;;;;;;8.00;3.57;;;11.00;99.90;;;;;;5074394;28;20404;-71
2024/02/07 01:45:21;;;;;;;4.37;3.20;;;11.00;99.90;;;;;;5074166;28;20451;-71
2024/02/07 01:47:47;;;;;;;5.17;2.83;;;11.00;99.90;;;;;;5074917;28;20431;-71
2024/02/07 01:50:13;;;;;;;7.10;3.63;;;11.00;99.90;;;;;;5074283;28;20484;-71
2024/02/07 01:52:42;;;;;;;4.73;3.20;;;11.00;99.90;;;;;;5074115;28;20510;-71
2024/02/07 01:55:08;;;;;;;5.67;2.90;;;11.10;99.90;;;;;;5074143;28;20212;-71
2024/02/07 01:57:34;;;;;;;6.77;3.23;;;11.00;99.90;;;;;;5074069;28;20397;-71
2024/02/07 02:00:00;;;;;;;7.80;3.10;;;11.00;99.90;;;;;;5073795;28;20249;-72
2024/02/07 02:02:26;;;;;;;4.67;2.80;;;10.90;99.90;;;;;;5074077;28;20194;-71
2024/02/07 02:04:52;;;;;;;5.33;3.27;;;10.90;99.90;;;;;;5074029;28;20452;-71
2024/02/07 02:07:18;;;;;;;10.20;3.60;;;10.90;99.90;;;;;;5073897;28;20424;-71
2024/02/07 02:09:45;;;;;;;3.50;3.00;;;11.00;99.90;;;;;;5073727;28;20174;-72
2024/02/07 02:12:12;;;;;;;6.20;3.97;;;10.90;99.90;;;;;;5073865;28;20404;-71
2024/02/07 02:14:38;;;;;;;6.47;3.80;;;10.90;99.90;;;;;;5073783;28;20404;-71
2024/02/07 02:17:03;;;;;;;4.23;3.63;;;10.90;99.90;;;;;;5073750;28;20428;-72
2024/02/07 02:19:29;;;;;;;8.93;3.57;;;10.90;99.90;;;;;;5073432;28;20518;-72
2024/02/07 02:22:17;;;;;;;9.50;3.83;;;10.90;99.90;;;;;;5073373;28;20182;-71
2024/02/07 02:25:08;;;;;;;10.10;3.63;;;10.80;99.90;;;;;;5073728;28;20800;-71
2024/02/07 02:27:56;;;;;;;9.00;3.23;;;10.90;99.90;;;;;;5073461;28;20392;-71
2024/02/07 02:30:33;;;;;;;9.00;3.40;;;10.80;99.90;;;;;;5072287;28;20409;-72
2024/02/07 02:33:12;;;;;;;5.57;3.33;;;10.80;99.90;;;;;;5073484;28;20408;-72
2024/02/07 02:35:40;;;;;;;4.90;4.20;;;10.80;99.90;;;;;;5071192;28;20466;-71
2024/02/07 02:38:06;;;;;;;5.13;3.00;;;10.90;99.90;;;;;;5070685;28;20518;-72
2024/02/07 02:40:32;;;;;;;5.63;3.93;;;10.90;99.90;;;;;;5073128;28;20742;-71
2024/02/07 02:42:59;;;;;;;5.60;3.33;;;10.90;99.90;;;;;;5073400;28;20408;-71
2024/02/07 02:45:24;;;;;;;3.03;2.60;;;10.90;99.90;;;;;;5072994;28;20263;-71
2024/02/07 02:47:50;;;;;;;7.80;3.23;;;10.90;99.90;;;;;;5072991;28;20805;-71
2024/02/07 02:50:16;;;;;;;5.20;3.47;;;11.00;99.90;;;;;;5073063;28;20528;-72
2024/02/07 02:52:42;;;;;;;6.63;3.97;;;11.00;99.90;;;;;;5073062;28;20424;-71
2024/02/07 02:55:09;;;;;;;3.17;2.87;;;11.00;99.90;;;;;;5072948;28;20633;-71
2024/02/07 02:57:36;;;;;;;2.97;2.20;;;11.00;99.90;;;;;;5072867;28;20404;-71
2024/02/07 03:00:07;;;;;;;4.27;2.57;;;11.00;99.90;;;;;;5072711;28;20423;-71
2024/02/07 03:02:36;;;;;;;3.73;2.57;;;11.00;99.90;;;;;;5071607;28;20174;-71
2024/02/07 03:05:02;;;;;;;5.20;3.73;;;11.00;99.90;;;;;;5072398;28;20456;-71
2024/02/07 03:07:54;;;;;;;4.53;2.80;;;11.00;99.90;;;;;;5072789;28;20434;-71
2024/02/07 03:10:21;;;;;;;5.23;2.67;;;11.00;99.90;;;;;;5072760;28;20397;-71
2024/02/07 03:12:47;;;;;;;3.83;2.80;;;10.90;99.90;;;;;;5071369;28;20409;-72
2024/02/07 03:15:12;;;;;;;7.13;2.70;;;10.90;99.90;;;;;;5071296;28;20927;-72
2024/02/07 03:17:38;;;;;;;12.27;2.90;;;10.90;99.90;;;;;;5072581;28;20198;-72
2024/02/07 03:20:05;;;;;;;4.83;2.43;;;10.80;99.90;;;;;;5072241;28;20169;-72
2024/02/07 03:22:31;;;;;;;5.20;3.00;;;10.80;99.90;;;;;;5072544;28;20167;-71
2024/02/07 03:24:56;;;;;;;6.33;2.63;;;10.80;99.90;;;;;;5072377;28;20462;-71
2024/02/07 03:27:22;;;;;;;7.80;3.00;;;10.80;99.90;;;;;;5072265;28;20539;-71
2024/02/07 03:29:48;;;;;;;4.13;2.73;;;10.80;99.90;;;;;;5072121;28;20166;-72
2024/02/07 03:32:14;;;;;;;4.50;2.47;;;10.80;99.90;;;;;;5072202;28;20413;-71
2024/02/07 03:34:41;;;;;;;6.40;2.90;;;10.80;99.90;;;;;;5072305;28;20162;-72
2024/02/07 03:37:06;;;;;;;3.37;2.87;;;10.90;99.90;;;;;;5067528;28;20444;-72
2024/02/07 03:39:32;;;;;;;4.43;3.20;;;10.90;99.90;;;;;;5071834;28;20463;-72
2024/02/07 03:41:58;;;;;;;3.20;1.90;;;10.90;99.90;;;;;;5072135;28;20166;-72
2024/02/07 03:44:23;;;;;;;5.17;1.97;;;11.00;99.90;;;;;;5072208;28;20174;-72
2024/02/07 03:46:50;;;;;;;3.20;2.30;;;11.10;99.90;;;;;;5072001;28;20205;-72
2024/02/07 03:49:16;;;;;;;3.87;2.53;;;11.10;99.90;;;;;;5070476;28;20519;-72
2024/02/07 03:51:43;;;;;;;8.63;2.20;;;11.20;99.90;;;;;;5072130;28;20400;-72
2024/02/07 03:54:09;;;;;;;4.93;3.30;;;11.20;99.90;;;;;;5071869;28;20435;-72
2024/02/07 03:56:35;;;;;;;3.47;2.20;;;11.20;99.90;;;;;;5071985;28;20420;-72
2024/02/07 03:59:02;;;;;;;5.47;2.60;;;11.20;99.90;;;;;;5071746;28;20219;-72
2024/02/07 04:01:28;;;;;;;2.43;1.60;;;11.10;99.90;;;;;;5071168;28;20468;-72
2024/02/07 04:03:54;;;;;;;2.43;2.20;;;11.10;99.90;;;;;;5071847;28;20409;-72
2024/02/07 04:06:19;;;;;;;2.50;2.20;;;11.10;99.90;;;;;;5071766;28;20817;-72
2024/02/07 04:08:45;;;;;;;4.57;1.90;;;11.10;99.90;;;;;;5071710;28;20198;-72
2024/02/07 05:16:22;;;;;;;2.20;1.47;;;10.70;99.90;;;;;;5074829;28;20419;-71
2024/02/07 05:18:47;;;;;;;11.00;4.87;;;10.80;99.90;;;;;;5074665;28;20412;-71
2024/02/07 05:21:13;;;;;;;2.57;1.97;;;10.90;99.90;;;;;;5074833;28;20583;-71
2024/02/07 05:23:41;;;;;;;2.60;2.07;;;10.80;99.90;;;;;;5068391;28;20178;-71
2024/02/07 05:26:08;;;;;;;3.07;1.70;;;10.60;99.90;;;;;;5074439;28;20218;-71
2024/02/07 05:28:34;;;;;;;10.03;3.70;;;10.40;99.90;;;;;;5074399;28;20515;-71
2024/02/07 05:31:00;;;;;;;4.43;3.47;;;10.00;99.90;;;;;;5074978;28;20843;-71
2024/02/07 05:33:25;;;;;;;6.83;4.10;;;9.80;99.90;;;;;;5074615;28;20166;-71
2024/02/07 05:35:51;;;;;;;7.83;4.57;;;9.70;99.90;;;;;;5072219;28;20190;-71
2024/02/07 05:38:16;;;;;;;8.70;4.77;;;9.50;99.90;;;;;;5071739;28;20174;-72
2024/02/07 05:40:42;;;;;;;8.90;4.73;;;9.20;99.90;;;;;;5074228;28;20263;-71
2024/02/07 05:43:07;;;;;;;6.37;4.87;;;9.10;99.90;;;;;;5074459;28;20182;-72
2024/02/07 05:45:33;;;;;;;11.23;5.50;;;9.00;99.90;;;;;;5074253;28;20212;-71
2024/02/07 05:47:59;;;;;;;7.93;5.53;;;8.90;99.90;;;;;;5074181;28;20165;-71
2024/02/07 05:50:24;;;;;;;7.50;5.10;;;8.70;99.90;;;;;;5074377;28;20216;-71
2024/02/07 05:52:51;;;;;;;5.10;3.77;;;8.60;99.90;;;;;;5074168;28;20417;-71
2024/02/07 05:55:16;;;;;;;4.77;3.93;;;8.40;99.90;;;;;;5074179;28;20159;-71
2024/02/07 05:57:42;;;;;;;5.23;2.97;;;8.30;99.90;;;;;;5074209;28;20828;-72
2024/02/07 06:00:09;;;;;;;2.47;2.20;;;8.20;99.90;;;;;;5073790;28;20170;-71
2024/02/07 06:02:35;;;;;;;16.40;9.50;;;8.00;99.90;;;;;;5074123;28;20190;-71
2024/02/07 06:05:05;;;;;;;3.70;2.33;;;7.90;99.90;;;;;;5073916;28;20448;-71
2024/02/07 06:07:31;;;;;;;2.70;2.50;;;7.80;99.90;;;;;;5074093;28;20397;-71
2024/02/07 06:09:57;;;;;;;3.73;1.83;;;7.70;99.90;;;;;;5072409;28;20412;-71
2024/02/07 06:12:23;;;;;;;1.63;1.47;;;7.50;99.90;;;;;;5073752;28;20440;-71
2024/02/07 06:14:48;;;;;;;2.83;1.60;;;7.40;99.90;;;;;;5073872;28;20758;-71
2024/02/07 06:17:14;;;;;;;1.40;1.13;;;7.30;99.90;;;;;;5073785;28;20680;-71
2024/02/07 06:19:39;;;;;;;2.90;1.30;;;7.30;99.90;;;;;;5073593;28;20163;-71
2024/02/07 06:22:05;;;;;;;0.93;0.80;;;7.20;99.90;;;;;;5073716;28;20173;-71
2024/02/07 06:24:31;;;;;;;2.90;1.30;;;7.20;99.90;;;;;;5073130;28;20239;-71
2024/02/07 06:26:57;;;;;;;1.13;1.00;;;7.20;99.90;;;;;;5073552;28;20202;-71
2024/02/07 06:29:23;;;;;;;1.63;1.20;;;7.10;99.90;;;;;;5073318;28;20397;-70
2024/02/07 06:31:49;;;;;;;4.03;1.20;;;7.00;99.90;;;;;;5071376;28;20427;-71
2024/02/07 06:34:14;;;;;;;1.50;1.10;;;7.00;99.90;;;;;;5070066;28;20711;-71
2024/02/07 06:36:40;;;;;;;1.70;1.47;;;7.00;99.90;;;;;;5068295;28;20229;-71
2024/02/07 06:39:05;;;;;;;1.40;1.30;;;7.00;99.90;;;;;;5073020;28;20264;-70
2024/02/07 06:41:31;;;;;;;2.13;1.17;;;6.90;99.90;;;;;;5073175;28;20245;-71
2024/02/07 06:43:56;;;;;;;1.80;1.60;;;7.00;99.90;;;;;;5073186;28;20162;-71
2024/02/07 06:46:23;;;;;;;3.20;1.70;;;7.00;99.90;;;;;;5072991;28;20229;-71
2024/02/07 06:48:48;;;;;;;1.53;1.27;;;7.00;99.90;;;;;;5072855;28;20163;-71
2024/02/07 06:51:14;;;;;;;1.57;1.47;;;7.00;99.90;;;;;;5072106;28;20420;-71
2024/02/07 06:53:40;;;;;;;1.93;1.30;;;7.00;99.90;;;;;;5071779;28;20185;-71
2024/02/07 06:56:06;;;;;;;4.33;2.00;;;7.00;99.90;;;;;;5072934;28;20581;-71
2024/02/07 06:58:32;;;;;;;1.40;1.00;;;7.00;99.90;;;;;;5072673;28;20162;-71
2024/02/07 07:00:58;;;;;;;1.70;1.50;;;7.00;99.90;;;;;;5072946;28;20751;-71
2024/02/07 07:03:27;;;;;;;2.13;1.47;;;7.00;99.90;;;;;;5072669;28;20890;-71
2024/02/07 07:05:53;;;;;;;3.43;2.03;;;7.00;99.90;;;;;;5072738;28;20459;-71
2024/02/07 07:08:18;;;;;;;3.83;2.10;;;7.00;99.90;;;;;;5072481;28;20892;-71
2024/02/07 07:10:44;;;;;;;2.77;1.80;;;7.00;99.90;;;;;;5067356;28;20254;-70
2024/02/07 07:13:09;;;;;;;2.50;1.67;;;7.00;99.90;;;;;;5072625;28;20174;-71
2024/02/07 07:15:35;;;;;;;1.53;1.17;;;7.00;99.90;;;;;;5071108;28;20281;-70
2024/02/07 07:18:01;;;;;;;4.90;1.40;;;7.00;99.90;;;;;;5070967;28;20162;-71
2024/02/07 07:20:31;;;;;;;1.27;1.03;;;7.00;99.90;;;;;;5072539;28;20181;-71
2024/02/07 07:23:02;;;;;;;4.60;1.80;;;7.00;99.90;;;;;;5072526;28;20578;-71
2024/02/07 07:25:27;;;;;;;1.43;1.30;;;7.00;99.90;;;;;;5072345;28;20548;-71
2024/02/07 07:27:53;;;;;;;3.90;1.27;;;6.90;99.90;;;;;;5072207;28;20487;-71
2024/02/07 07:30:18;;;;;;;2.20;1.27;;;6.90;99.90;;;;;;5072436;28;20165;-71
2024/02/07 07:32:44;;;;;;;2.43;1.43;;;6.90;99.90;;;;;;5072442;28;20170;-71
2024/02/07 07:35:10;;;;;;;2.50;1.73;;;6.80;99.90;;;;;;5071482;28;20166;-71
2024/02/07 07:37:35;;;;;;;3.33;1.73;;;6.80;99.90;;;;;;5065027;28;20179;-71
2024/02/07 07:40:01;;;;;;;4.17;1.30;;;6.80;99.90;;;;;;5071719;28;20412;-71
2024/02/07 07:42:27;;;;;;;2.00;1.63;;;6.90;99.90;;;;;;5072113;28;20304;-71
2024/02/07 07:44:53;;;;;;;2.53;2.03;;;6.90;99.90;;;;;;5067972;28;20286;-71
2024/02/07 07:47:18;;;;;;;3.40;1.97;;;6.80;99.90;;;;;;5067959;28;20431;-71
2024/02/07 07:49:44;;;;;;;3.60;1.57;;;6.90;99.90;;;;;;5071311;28;20249;-71
2024/02/07 07:52:10;;;;;;;6.10;2.30;;;6.90;99.90;;;;;;5071539;28;20235;-71
2024/02/07 07:54:37;;;;;;;3.10;2.07;;;6.90;99.90;;;;;;5071731;28;20241;-71
2024/02/07 07:57:03;;;;;;;7.17;2.83;;;6.90;99.90;;;;;;5071502;28;20428;-70
2024/02/07 07:59:31;;;;;;;4.87;2.50;;;6.90;99.90;;;;;;5071366;28;20763;-70
2024/02/07 08:02:00;;;;;;;6.83;2.60;;;6.90;99.90;;;;;;5071558;28;20957;-71
2024/02/07 08:04:26;;;;;;;3.97;2.20;;;6.90;99.90;;;;;;5071508;28;20396;-71
2024/02/07 08:06:52;;;;;;;3.53;1.90;;;7.00;99.90;;;;;;5070169;28;20492;-71
2024/02/07 08:09:18;;;;;;;3.10;2.40;;;7.00;99.90;;;;;;5071312;28;20947;-71
2024/02/07 08:11:44;;;;;;;5.50;2.90;;;7.00;99.90;;;;;;5071396;28;20911;-70
2024/02/07 08:14:09;;;;;;;4.63;2.17;;;7.00;99.90;;;;;;5071460;28;20396;-70
2024/02/07 08:16:35;;;;;;;7.00;1.40;;;7.00;99.90;;;;;;5071317;28;20420;-71
2024/02/07 08:19:00;;;;;;;5.07;1.67;;;7.10;99.90;;;;;;5071144;28;20537;-71
2024/02/07 08:21:26;;;;;;;3.90;1.60;;;7.10;99.90;;;;;;5071153;28;20170;-70
2024/02/07 08:23:52;;;;;;;4.73;1.60;;;7.10;99.90;;;;;;5071458;28;20166;-71
2024/02/07 08:26:17;;;;;;;2.03;1.20;;;7.20;99.90;;;;;;5071181;28;20198;-71
2024/02/07 08:28:43;;;;;;;4.37;1.23;;;7.20;99.90;;;;;;5071158;28;20204;-71
2024/02/07 08:31:11;;;;;;;1.90;1.33;;;7.30;99.90;;;;;;5067896;28;20174;-66
2024/02/07 08:33:37;;;;;;;2.40;1.70;;;7.40;99.90;;;;;;5055292;28;20163;-65
2024/02/07 08:36:03;;;;;;;2.10;1.07;;;7.50;99.90;;;;;;5069514;28;20445;-67
2024/02/07 08:38:28;;;;;;;1.50;1.10;;;7.60;99.90;;;;;;5059490;28;20427;-66
2024/02/07 08:40:54;;;;;;;3.13;1.60;;;7.70;99.90;;;;;;5071272;28;20166;-66
2024/02/07 08:43:23;;;;;;;3.33;1.40;;;7.80;99.90;;;;;;5071297;28;20263;-67
2024/02/07 08:45:49;;;;;;;2.90;1.80;;;8.00;99.90;;;;;;5071293;28;20456;-66
2024/02/07 08:48:14;;;;;;;4.40;1.53;;;8.10;99.90;;;;;;5075081;28;20419;-66
2024/02/07 08:50:40;;;;;;;1.93;1.40;;;8.10;99.90;;;;;;5075193;28;20654;-66
2024/02/07 08:53:07;;;;;;;9.00;1.67;;;8.30;99.90;;;;;;5075046;28;20212;-67
2024/02/07 08:55:33;;;;;;;5.33;2.07;;;8.30;99.90;;;;;;5075069;28;20185;-67
2024/02/07 08:57:59;;;;;;;1.53;1.40;;;8.40;99.90;;;;;;5074861;28;20408;-67
2024/02/07 09:00:24;;;;;;;2.13;1.60;;;8.40;99.90;;;;;;5075141;28;20209;-66
2024/02/07 09:02:52;;;;;;;1.93;1.57;;;8.30;99.90;;;;;;5075047;28;20592;-67
2024/02/07 09:05:19;;;;;;;1.90;1.70;;;8.30;99.90;;;;;;5074866;28;20185;-67
2024/02/07 09:07:45;;;;;;;3.13;2.20;;;8.30;99.90;;;;;;5074980;28;20396;-67
2024/02/07 09:10:12;;;;;;;3.00;1.90;;;8.30;99.90;;;;;;5074710;28;20766;-67
2024/02/07 09:12:37;;;;;;;1.63;1.33;;;8.30;99.90;;;;;;5074710;28;20408;-67
2024/02/07 09:15:03;;;;;;;1.30;1.20;;;8.30;99.90;;;;;;5074814;28;20945;-65
2024/02/07 09:17:31;;;;;;;2.57;1.40;;;8.30;99.90;;;;;;5074635;28;20274;-66
2024/02/07 09:19:56;;;;;;;2.10;1.50;;;8.40;99.90;;;;;;5074395;28;21017;-66
2024/02/07 09:22:22;;;;;;;3.70;1.40;;;8.50;99.90;;;;;;5074658;28;20397;-66
2024/02/07 09:24:47;;;;;;;4.53;1.63;;;8.60;99.90;;;;;;5074588;28;20245;-66
2024/02/07 09:27:13;;;;;;;2.37;1.50;;;8.70;99.90;;;;;;5074565;28;20287;-66
2024/02/07 09:29:39;;;;;;;4.83;1.40;;;8.70;99.90;;;;;;5068050;28;20538;-66
2024/02/07 09:32:05;;;;;;;4.20;1.40;;;8.60;99.90;;;;;;5074276;28;20202;-66
2024/02/07 09:34:30;;;;;;;3.53;1.10;;;8.70;99.90;;;;;;5074383;28;20176;-67
2024/02/07 09:36:56;;;;;;;1.50;1.03;;;8.70;99.90;;;;;;5066450;28;20255;-66
2024/02/07 09:39:22;;;;;;;4.10;1.37;;;8.70;99.90;;;;;;5057837;28;20214;-67
2024/02/07 09:41:49;;;;;;;2.57;1.23;;;8.80;99.90;;;;;;5071825;28;20704;-66
2024/02/07 09:44:16;;;;;;;2.97;1.30;;;8.80;99.90;;;;;;5074111;28;20411;-66
2024/02/07 09:46:45;;;;;;;2.03;0.90;;;8.80;99.90;;;;;;5073974;28;20460;-67
2024/02/07 09:49:16;;;;;;;6.23;1.30;;;8.90;99.90;;;;;;5073896;28;20759;-66
2024/02/07 09:51:42;;;;;;;4.50;1.63;;;9.10;99.90;;;;;;5074084;28;20401;-66
2024/02/07 09:54:12;;;;;;;5.03;1.03;;;9.20;99.90;;;;;;5073952;28;20439;-67
2024/02/07 09:56:39;;;;;;;3.43;1.30;;;9.30;99.90;;;;;;5073799;28;20420;-66
2024/02/07 09:59:09;;;;;;;8.93;1.07;;;9.30;99.90;;;;;;5072522;28;20436;-65
2024/02/07 10:01:35;;;;;;;3.07;1.40;;;9.30;99.90;;;;;;5073810;28;20411;-65
2024/02/07 10:04:02;;;;;;;1.13;1.00;;;9.40;99.90;;;;;;5073859;28;20402;-66
2024/02/07 10:06:28;;;;;;;3.53;1.33;;;9.40;99.90;;;;;;5073672;28;20456;-66
2024/02/07 10:08:54;;;;;;;2.47;1.60;;;9.40;99.90;;;;;;5073522;28;20400;-66
2024/02/07 10:11:22;;;;;;;2.60;1.17;;;9.20;99.90;;;;;;5073698;28;20429;-66
2024/02/07 10:13:47;;;;;;;4.70;1.63;;;9.10;99.90;;;;;;5073695;28;20407;-66
2024/02/07 10:16:13;;;;;;;2.60;1.67;;;9.10;99.90;;;;;;5073567;28;20994;-66
2024/02/07 10:18:39;;;;;;;1.77;1.23;;;9.10;99.90;;;;;;5073405;28;20253;-66
2024/02/07 10:21:04;;;;;;;7.00;1.73;;;9.10;99.90;;;;;;5072268;28;20629;-66
2024/02/07 10:23:31;;;;;;;2.57;1.50;;;9.10;99.90;;;;;;5071265;28;20174;-65
2024/02/07 10:25:59;;;;;;;4.03;1.50;;;9.10;99.90;;;;;;5061886;28;20214;-66
2024/02/07 10:28:24;;;;;;;6.70;1.50;;;9.00;99.90;;;;;;5072938;28;20422;-66
2024/02/07 10:31:01;;;;;;;3.00;1.90;;;8.90;99.90;;;;;;5073083;28;20440;-68
2024/02/07 10:33:37;;;;;;;4.83;1.60;;;8.80;99.90;;;;;;5073077;28;20413;-66
2024/02/07 10:36:04;;;;;;;3.10;1.67;;;8.80;99.90;;;;;;5072334;28;20517;-66
2024/02/07 10:38:32;;;;;;;4.97;1.60;;;8.70;99.90;;;;;;5068121;28;20822;-66
2024/02/07 10:40:57;;;;;;;3.17;1.27;;;8.60;99.90;;;;;;5072924;28;20416;-66
2024/02/07 10:43:28;;;;;;;4.10;1.67;;;8.50;99.90;;;;;;5073056;28;20423;-66
2024/02/07 10:46:00;;;;;;;3.60;1.40;;;8.40;99.90;;;;;;5072902;28;20227;-66
2024/02/07 10:48:27;;;;;;;4.30;1.27;;;8.40;99.90;;;;;;5072773;28;20403;-66
2024/02/07 10:50:53;;;;;;;2.73;1.70;;;8.30;99.90;;;;;;5072733;28;20416;-66
2024/02/07 10:53:19;;;;;;;5.53;1.67;;;8.30;99.90;;;;;;5072677;28;20478;-66
2024/02/07 10:55:45;;;;;;;2.87;1.90;;;8.30;99.90;;;;;;5072786;28;20428;-66
2024/02/07 10:58:15;;;;;;;4.37;2.00;;;8.40;99.90;;;;;;5072630;28;20170;-66
2024/02/07 11:00:41;;;;;;;4.23;2.50;;;8.40;99.90;;;;;;5072865;28;20182;-66
2024/02/07 11:03:09;;;;;;;2.43;2.00;;;8.40;99.90;;;;;;5072638;28;20961;-66
2024/02/07 11:05:35;;;;;;;5.23;1.97;;;8.40;99.90;;;;;;5072520;28;20201;-66
2024/02/07 11:08:01;;;;;;;2.80;2.33;;;8.40;99.90;;;;;;5072294;28;20447;-66
2024/02/07 11:10:27;;;;;;;4.13;2.13;;;8.40;99.90;;;;;;5072409;28;20836;-66
2024/02/07 11:12:55;;;;;;;3.97;2.10;;;8.40;99.90;;;;;;5072519;28;20934;-66
2024/02/07 11:15:21;;;;;;;3.80;1.70;;;8.40;99.90;;;;;;5072476;28;20458;-66
2024/02/07 11:17:46;;;;;;;2.53;1.97;;;8.40;99.90;;;;;;5072353;28;20408;-66
2024/02/07 11:20:12;;;;;;;4.37;1.73;;;8.50;99.90;;;;;;5072199;28;20231;-66
2024/02/07 11:22:45;;;;;;;2.83;2.00;;;8.50;99.90;;;;;;5072143;28;20178;-66
2024/02/07 11:25:16;;;;;;;6.07;1.87;;;8.50;99.90;;;;;;5072254;28;20194;-66
2024/02/07 11:27:42;;;;;;;2.73;2.20;;;8.60;99.90;;;;;;5072225;28;20401;-66
2024/02/07 11:30:09;;;;;;;3.80;2.30;;;8.60;99.90;;;;;;5071972;28;20435;-66
2024/02/07 11:32:38;;;;;;;5.27;2.27;;;8.50;99.90;;;;;;5072150;28;20166;-67
2024/02/07 11:35:07;;;;;;;5.10;2.00;;;8.40;99.90;;;;;;5072014;28;20413;-66
2024/02/07 11:37:36;;;;;;;3.37;2.23;;;8.40;99.90;;;;;;5067179;28;20788;-66
2024/02/07 11:40:06;;;;;;;4.47;2.07;;;8.30;99.90;;;;;;5071691;28;20491;-66
2024/02/07 11:42:39;;;;;;;3.67;1.67;;;8.20;99.90;;;;;;5071840;28;20412;-66
2024/02/07 11:45:05;;;;;;;2.37;1.87;;;8.10;99.90;;;;;;5071681;28;20817;-66
2024/02/07 11:47:34;;;;;;;1.43;1.10;;;8.00;99.90;;;;;;5071975;28;20984;-67
2024/02/07 11:50:05;;;;;;;2.03;1.83;;;8.00;99.90;;;;;;5071725;28;20443;-67
2024/02/07 11:52:35;;;;;;;1.83;1.30;;;8.00;99.90;;;;;;5071712;28;20431;-66
2024/02/07 11:55:07;;;;;;;1.40;1.30;;;7.90;99.90;;;;;;5071817;28;20823;-66
2024/02/07 11:57:33;;;;;;;2.30;1.63;;;7.70;99.90;;;;;;5071850;28;20445;-66
2024/02/07 12:00:00;;;;;;;1.73;1.00;;;7.60;99.90;;;;;;5071336;28;20463;-66
2024/02/07 12:02:26;;;;;;;1.67;1.10;;;7.60;99.90;;;;;;5071817;28;20488;-66
2024/02/07 12:04:52;;;;;;;1.00;0.90;;;7.50;99.90;;;;;;5071757;28;20400;-66
2024/02/07 12:07:18;;;;;;;3.23;1.30;;;7.30;99.90;;;;;;5071670;28;20787;-66
2024/02/07 12:09:45;;;;;;;3.10;1.43;;;7.00;99.90;;;;;;5057784;28;20633;-67
2024/02/07 12:12:13;;;;;;;5.63;1.63;;;6.90;99.90;;;;;;5064438;28;20408;-67
2024/02/07 12:14:39;;;;;;;3.10;1.43;;;6.60;99.90;;;;;;5071487;28;20910;-66
2024/02/07 12:17:06;;;;;;;3.23;1.20;;;6.60;99.90;;;;;;5071212;28;20992;-66
2024/02/07 12:19:35;;;;;;;1.57;1.07;;;6.60;99.90;;;;;;5071173;28;20419;-66
2024/02/07 12:22:01;;;;;;;1.97;1.30;;;6.60;99.90;;;;;;5070846;28;20416;-66
2024/02/07 12:24:32;;;;;;;3.07;1.40;;;6.60;99.90;;;;;;5071601;28;20431;-66
2024/02/07 12:27:08;;;;;;;1.63;1.00;;;6.40;99.90;;;;;;5071461;28;20452;-66
2024/02/07 12:29:34;;;;;;;1.13;0.80;;;6.20;99.90;;;;;;5071266;28;20415;-66
2024/02/07 12:32:00;;;;;;;2.07;0.80;;;6.20;99.90;;;;;;5071493;28;20401;-66
2024/02/07 12:34:27;;;;;;;2.30;1.00;;;6.30;99.90;;;;;;5071575;28;20202;-66
2024/02/07 12:36:53;;;;;;;2.00;1.10;;;6.30;99.90;;;;;;5067326;28;20452;-66
2024/02/07 12:39:22;;;;;;;3.30;1.87;;;6.30;99.90;;;;;;5071104;28;20424;-66
2024/02/07 12:41:48;;;;;;;1.47;1.00;;;6.30;99.90;;;;;;5071243;28;20499;-66
2024/02/07 12:44:15;;;;;;;2.73;1.00;;;6.20;99.90;;;;;;5071188;28;20420;-67
2024/02/07 12:46:41;;;;;;;1.20;1.10;;;6.20;99.90;;;;;;5071139;28;20456;-66
2024/02/07 12:49:09;;;;;;;4.47;1.10;;;6.10;99.90;;;;;;5071026;28;20409;-66
2024/02/07 12:51:35;;;;;;;5.13;1.30;;;6.30;99.90;;;;;;5071253;28;20408;-67
2024/02/07 12:54:01;;;;;;;3.43;1.50;;;6.20;99.90;;;;;;5071229;28;20446;-66
2024/02/07 12:56:27;;;;;;;2.33;1.17;;;6.10;99.90;;;;;;5071183;28;20545;-66
2024/02/07 12:58:52;;;;;;;1.80;0.90;;;6.00;99.90;;;;;;5070802;28;20491;-66
2024/02/07 13:01:22;;;;;;;2.50;1.60;;;6.10;99.90;;;;;;5069848;28;20503;-66
2024/02/07 13:03:47;;;;;;;3.03;1.33;;;5.90;99.90;;;;;;5071008;28;20186;-67
2024/02/07 13:06:14;;;;;;;2.10;1.07;;;5.90;99.90;;;;;;5070902;28;20800;-67
2024/02/07 13:08:40;;;;;;;9.23;1.40;;;5.80;99.90;;;;;;5070773;28;20185;-67
2024/02/07 13:11:05;;;;;;;2.97;1.40;;;5.80;99.90;;;;;;5070901;28;20447;-66
2024/02/07 13:13:31;;;;;;;2.87;1.47;;;5.90;99.90;;;;;;5070901;28;20621;-66
2024/02/07 13:15:58;;;;;;;1.93;1.33;;;5.70;99.90;;;;;;5070931;28;20232;-67
2024/02/07 13:18:24;;;;;;;4.50;1.80;;;5.80;99.90;;;;;;5070737;28;20443;-66
2024/02/07 13:20:50;;;;;;;3.57;1.53;;;5.90;99.90;;;;;;5071325;28;20469;-66
2024/02/07 13:23:18;;;;;;;3.37;1.40;;;5.90;99.90;;;;;;5070864;28;20412;-66
2024/02/07 13:25:46;;;;;;;4.50;1.80;;;5.90;99.90;;;;;;5070667;28;20517;-66
2024/02/07 13:28:12;;;;;;;4.13;1.67;;;6.00;99.90;;;;;;5069381;28;20423;-66
2024/02/07 13:30:38;;;;;;;3.00;1.43;;;6.00;99.90;;;;;;5070884;28;20924;-66
2024/02/07 13:33:03;;;;;;;1.80;1.00;;;6.10;99.90;;;;;;5071335;28;20194;-66
2024/02/07 13:35:29;;;;;;;1.50;1.13;;;6.00;99.90;;;;;;5074346;28;20189;-66
2024/02/07 13:37:58;;;;;;;2.20;1.87;;;6.00;99.90;;;;;;5073898;28;20174;-66
2024/02/07 13:40:25;;;;;;;1.47;0.90;;;6.00;99.90;;;;;;5074243;28;20174;-67
2024/02/07 13:42:52;;;;;;;3.27;1.47;;;6.10;99.90;;;;;;5074159;28;20401;-66
2024/02/07 13:45:22;;;;;;;1.30;1.10;;;6.10;99.90;;;;;;5074052;28;20452;-66
2024/02/07 13:47:48;;;;;;;9.33;1.83;;;6.20;99.90;;;;;;5074183;28;20767;-67
2024/02/07 13:50:14;;;;;;;2.20;1.43;;;6.20;99.90;;;;;;5073870;28;20466;-67
2024/02/07 13:52:40;;;;;;;7.47;1.70;;;6.20;99.90;;;;;;5073938;28;20827;-67
2024/02/07 13:55:05;;;;;;;2.50;1.87;;;6.20;99.90;;;;;;5073909;28;20567;-66